Time;durP1;ratioP1;P1;durP2;ratioP2;P2;SDS_P1;SDS_P2;PMS_P1;PMS_P2;Temp;Humidity;BMP_temperature;BMP_pressure;BME280_temperature;BME280_humidity;BME280_pressure;Samples;Min_cycle;Max_cycle;Signal;HPM_P1;HPM_P2
2024/03/29 00:00:28;;;;;;;5.20;2.78;;;;;;;4.41;73.26;98516.22;2517682;28;20084;-81
2024/03/29 00:01:43;;;;;;;4.90;3.10;;;;;;;4.42;73.10;98511.06;2515354;28;20022;-80
2024/03/29 00:02:56;;;;;;;4.10;2.20;;;;;;;4.42;73.06;98515.38;2507470;28;20053;-79
2024/03/29 00:04:10;;;;;;;9.07;3.60;;;;;;;4.40;72.99;98507.63;2507856;28;20035;-82
2024/03/29 00:05:23;;;;;;;8.48;2.63;;;;;;;4.41;72.81;98506.75;2506850;28;20023;-81
2024/03/29 00:06:36;;;;;;;5.65;2.58;;;;;;;4.41;73.07;98509.34;2508065;28;20126;-82
2024/03/29 00:07:49;;;;;;;9.50;3.13;;;;;;;4.43;72.97;98505.00;2506596;28;20031;-81
2024/03/29 00:09:02;;;;;;;3.40;2.83;;;;;;;4.43;72.93;98509.31;2508721;28;20057;-82
2024/03/29 00:10:16;;;;;;;3.95;2.17;;;;;;;4.42;73.06;98502.47;2536861;28;20494;-80
2024/03/29 00:11:31;;;;;;;4.78;2.70;;;;;;;4.41;73.37;98496.41;2503807;28;20037;-81
2024/03/29 00:12:44;;;;;;;3.72;2.78;;;;;;;4.41;73.07;98490.41;2511634;28;20029;-81
2024/03/29 00:13:57;;;;;;;5.13;3.08;;;;;;;4.38;73.34;98487.00;2502111;28;20018;-80
2024/03/29 00:15:11;;;;;;;4.90;3.42;;;;;;;4.37;73.46;98487.88;2490956;28;20027;-81
2024/03/29 00:16:25;;;;;;;6.50;2.95;;;;;;;4.35;73.47;98474.16;2500731;28;20582;-81
2024/03/29 00:17:38;;;;;;;10.23;2.95;;;;;;;4.32;73.72;98484.53;2485069;28;20032;-82
2024/03/29 00:18:52;;;;;;;2.92;2.70;;;;;;;4.29;73.84;98476.00;2485265;29;20061;-80
2024/03/29 00:20:06;;;;;;;5.03;3.10;;;;;;;4.26;73.91;98473.44;2503041;28;20050;-82
2024/03/29 00:21:19;;;;;;;6.53;2.35;;;;;;;4.24;73.79;98464.91;2530109;28;20486;-81
2024/03/29 00:22:32;;;;;;;4.07;2.65;;;;;;;4.25;73.50;98467.44;2509310;28;20058;-81
2024/03/29 00:23:46;;;;;;;2.95;2.03;;;;;;;4.26;73.69;98455.38;2508542;28;20090;-82
2024/03/29 00:25:00;;;;;;;2.75;2.35;;;;;;;4.30;73.74;98450.13;2490707;28;20503;-83
2024/03/29 00:26:13;;;;;;;4.85;2.35;;;;;;;4.38;73.54;98447.41;2493230;28;20096;-81
2024/03/29 00:27:28;;;;;;;5.90;2.90;;;;;;;4.44;73.21;98449.03;2491310;28;20519;-83
2024/03/29 00:28:41;;;;;;;4.35;2.60;;;;;;;4.48;72.66;98445.50;2491599;28;20023;-81
2024/03/29 00:29:54;;;;;;;3.85;2.83;;;;;;;4.54;72.61;98456.59;2531384;28;20059;-82
2024/03/29 00:31:08;;;;;;;4.03;2.30;;;;;;;4.57;72.59;98458.25;2541492;28;20037;-83
2024/03/29 00:32:21;;;;;;;3.53;2.67;;;;;;;4.60;72.49;98453.03;2520404;28;20065;-83
2024/03/29 00:33:35;;;;;;;4.20;2.50;;;;;;;4.63;72.59;98447.78;2477342;29;20028;-82
2024/03/29 00:34:52;;;;;;;3.88;2.33;;;;;;;4.67;72.42;98454.59;2482011;28;20027;-81
2024/03/29 00:36:06;;;;;;;4.97;2.47;;;;;;;4.73;72.14;98456.22;2511177;28;20186;-82
2024/03/29 00:37:19;;;;;;;3.38;2.60;;;;;;;4.78;72.36;98456.97;2527850;28;20035;-83
2024/03/29 00:38:32;;;;;;;4.05;2.83;;;;;;;4.81;72.38;98455.16;2514376;28;20055;-83
2024/03/29 00:39:45;;;;;;;4.95;2.75;;;;;;;4.88;72.09;98444.69;2522380;28;20049;-82
2024/03/29 00:40:59;;;;;;;4.13;2.40;;;;;;;4.98;71.50;98438.44;2541027;28;20033;-83
2024/03/29 00:42:15;;;;;;;2.65;2.20;;;;;;;5.09;71.00;98433.06;2514769;28;20492;-80
2024/03/29 00:43:28;;;;;;;7.20;3.35;;;;;;;5.18;70.71;98425.09;2524456;28;20094;-80
2024/03/29 00:44:42;;;;;;;2.90;2.60;;;;;;;5.25;70.20;98424.06;2489943;28;20023;-81
2024/03/29 00:45:55;;;;;;;3.10;2.70;;;;;;;5.33;69.66;98418.72;2492487;28;20027;-81
2024/03/29 00:47:09;;;;;;;5.53;1.92;;;;;;;5.37;69.66;98404.81;2486796;28;20028;-81
2024/03/29 00:48:22;;;;;;;6.05;2.25;;;;;;;5.44;69.01;98406.38;2489924;28;20095;-79
2024/03/29 00:49:36;;;;;;;1.95;1.30;;;;;;;5.52;68.52;98408.78;2484613;28;20023;-81
2024/03/29 00:50:50;;;;;;;5.20;1.80;;;;;;;5.61;68.23;98403.41;2505545;28;20035;-81
2024/03/29 00:52:03;;;;;;;2.97;2.10;;;;;;;5.69;68.03;98398.88;2491234;28;20090;-81
2024/03/29 00:53:17;;;;;;;6.82;2.00;;;;;;;5.75;67.30;98396.13;2493923;28;20415;-81
2024/03/29 00:54:31;;;;;;;2.22;1.90;;;;;;;5.81;67.19;98405.50;2507812;28;20021;-82
2024/03/29 00:55:44;;;;;;;3.65;2.13;;;;;;;5.93;66.88;98422.44;2509634;28;20061;-82
2024/03/29 00:56:57;;;;;;;3.33;1.92;;;;;;;6.00;66.51;98419.69;2499140;28;20023;-81
2024/03/29 00:58:11;;;;;;;2.95;2.05;;;;;;;6.06;66.18;98416.91;2536073;28;20040;-82
2024/03/29 00:59:24;;;;;;;16.98;2.63;;;;;;;6.14;66.13;98413.28;2531370;28;20037;-83
2024/03/29 01:00:37;;;;;;;3.45;3.05;;;;;;;6.22;65.39;98417.41;2524757;28;20018;-83
2024/03/29 01:01:50;;;;;;;2.83;1.45;;;;;;;6.30;64.93;98415.44;2496928;28;20074;-83
2024/03/29 01:03:04;;;;;;;5.50;2.03;;;;;;;6.38;64.47;98423.00;2492206;28;20054;-82
2024/03/29 01:04:17;;;;;;;2.33;1.90;;;;;;;6.46;64.56;98425.38;2526102;28;20425;-82
2024/03/29 01:05:30;;;;;;;4.55;2.20;;;;;;;6.51;63.99;98419.19;2517747;28;20048;-83
2024/03/29 01:06:44;;;;;;;2.38;1.52;;;;;;;6.57;63.64;98423.34;2531422;28;20124;-81
2024/03/29 01:07:57;;;;;;;1.80;1.05;;;;;;;6.67;63.00;98424.78;2527494;28;20034;-82
2024/03/29 01:09:11;;;;;;;2.53;1.67;;;;;;;6.78;62.57;98427.06;2513860;28;20062;-82
2024/03/29 01:10:24;;;;;;;3.20;1.70;;;;;;;6.87;61.91;98425.94;2527463;28;20411;-83
2024/03/29 01:11:38;;;;;;;2.50;1.42;;;;;;;6.92;61.90;98419.72;2490315;28;20043;-82
2024/03/29 01:12:51;;;;;;;3.33;1.60;;;;;;;6.98;61.40;98411.75;2487977;28;20023;-82
2024/03/29 01:14:05;;;;;;;2.38;1.25;;;;;;;7.04;61.01;98397.75;2494172;28;20031;-82
2024/03/29 01:15:18;;;;;;;4.05;2.35;;;;;;;7.08;60.80;98398.53;2496621;28;20035;-81
2024/03/29 01:16:32;;;;;;;4.68;1.77;;;;;;;7.12;60.55;98389.75;2498747;28;20031;-82
2024/03/29 01:17:45;;;;;;;3.88;1.27;;;;;;;7.15;60.00;98385.31;2484883;28;20162;-83
2024/03/29 01:18:59;;;;;;;3.05;2.03;;;;;;;7.18;60.25;98382.63;2487406;28;20020;-82
2024/03/29 01:20:12;;;;;;;4.50;2.15;;;;;;;7.18;60.42;98384.38;2537795;28;20037;-81
2024/03/29 01:21:26;;;;;;;2.28;1.60;;;;;;;7.16;60.35;98371.44;2527619;28;20061;-81
2024/03/29 01:22:39;;;;;;;1.73;1.45;;;;;;;7.16;60.46;98370.59;2486387;28;20035;-82
2024/03/29 01:23:53;;;;;;;2.15;1.33;;;;;;;7.12;60.59;98369.00;2496867;28;20038;-81
2024/03/29 01:25:08;;;;;;;2.70;1.73;;;;;;;7.11;60.49;98354.34;2484333;28;20077;-81
2024/03/29 01:26:21;;;;;;;1.42;1.30;;;;;;;7.12;60.00;98366.41;2514600;28;20025;-81
2024/03/29 01:27:35;;;;;;;3.15;1.50;;;;;;;7.13;60.28;98360.31;2490504;29;20118;-80
2024/03/29 01:28:48;;;;;;;1.65;1.35;;;;;;;7.15;59.71;98369.75;2489076;28;20016;-80
2024/03/29 01:30:01;;;;;;;4.50;1.48;;;;;;;7.17;59.65;98373.13;2527403;28;20021;-81
2024/03/29 01:31:15;;;;;;;3.08;1.73;;;;;;;7.19;60.05;98383.47;2499369;28;20026;-80
2024/03/29 01:32:28;;;;;;;3.38;1.67;;;;;;;7.17;60.07;98374.88;2497403;28;20091;-82
2024/03/29 01:33:41;;;;;;;2.67;1.55;;;;;;;7.19;60.02;98378.28;2481665;28;20154;-83
2024/03/29 01:34:55;;;;;;;4.38;1.42;;;;;;;7.22;59.90;98383.38;2498994;28;20027;-81
2024/03/29 01:36:08;;;;;;;1.85;1.60;;;;;;;7.27;59.35;98383.22;2523149;28;20041;-83
2024/03/29 01:37:21;;;;;;;2.92;2.65;;;;;;;7.31;58.93;98380.50;2490432;29;20089;-83
2024/03/29 01:38:34;;;;;;;2.13;1.20;;;;;;;7.36;58.73;98382.94;2492907;28;20026;-82
2024/03/29 01:39:48;;;;;;;2.75;1.25;;;;;;;7.38;58.61;98382.00;2515330;28;20037;-82
2024/03/29 01:41:02;;;;;;;1.15;0.80;;;;;;;7.40;58.22;98356.84;2541619;28;20421;-81
2024/03/29 01:42:15;;;;;;;1.35;1.20;;;;;;;7.45;58.21;98359.28;2533915;28;20011;-80
2024/03/29 01:43:28;;;;;;;2.47;1.05;;;;;;;7.48;57.90;98379.09;2526611;28;20424;-82
2024/03/29 01:44:42;;;;;;;2.13;1.67;;;;;;;7.51;57.47;98364.28;2507785;28;20522;-80
2024/03/29 01:45:56;;;;;;;1.77;1.42;;;;;;;7.56;57.17;98367.59;2497353;29;20023;-82
2024/03/29 01:47:09;;;;;;;3.70;1.30;;;;;;;7.60;57.05;98376.09;2532066;28;20035;-81
2024/03/29 01:48:24;;;;;;;2.53;1.58;;;;;;;7.60;57.64;98376.09;2506417;28;20057;-80
2024/03/29 01:49:37;;;;;;;1.55;1.00;;;;;;;7.61;57.82;98372.59;2502186;28;20031;-82
2024/03/29 01:50:51;;;;;;;2.45;1.65;;;;;;;7.62;57.28;98372.56;2485889;28;20182;-81
2024/03/29 01:52:06;;;;;;;2.25;1.42;;;;;;;7.64;57.23;98375.97;2493074;28;20043;-81
2024/03/29 01:53:19;;;;;;;2.25;1.23;;;;;;;7.66;57.52;98378.50;2493607;28;20585;-81
2024/03/29 01:54:33;;;;;;;7.43;1.90;;;;;;;7.68;56.91;98379.28;2501627;28;20027;-82
2024/03/29 01:55:46;;;;;;;1.33;0.90;;;;;;;7.69;56.86;98375.78;2520463;28;20406;-83
2024/03/29 01:57:00;;;;;;;4.43;1.25;;;;;;;7.72;56.60;98374.84;2495377;28;20019;-82
2024/03/29 01:58:13;;;;;;;1.75;1.10;;;;;;;7.75;56.36;98380.78;2528101;28;20097;-82
2024/03/29 01:59:28;;;;;;;3.53;1.42;;;;;;;7.78;56.72;98388.47;2503190;28;20030;-82
2024/03/29 02:00:54;;;;;;;1.30;1.20;;;;;;;7.78;57.07;98390.22;2511235;28;20027;-81
2024/03/29 02:02:07;;;;;;;2.67;1.30;;;;;;;7.78;56.98;98387.63;2487675;28;20523;-82
2024/03/29 02:03:21;;;;;;;1.73;1.58;;;;;;;7.77;57.01;98384.19;2511841;28;20061;-83
2024/03/29 02:04:35;;;;;;;3.60;1.30;;;;;;;7.76;57.18;98385.06;2531313;28;20011;-82
2024/03/29 02:05:49;;;;;;;2.97;1.92;;;;;;;7.74;57.10;98371.28;2485474;28;20039;-82
2024/03/29 02:07:03;;;;;;;1.98;1.10;;;;;;;7.74;57.78;98373.88;2517106;28;20057;-82
2024/03/29 02:08:16;;;;;;;4.78;1.40;;;;;;;7.75;57.81;98364.38;2544020;28;20011;-81
2024/03/29 02:09:30;;;;;;;1.02;0.80;;;;;;;7.73;58.49;98372.19;2532737;28;20026;-83
2024/03/29 02:10:43;;;;;;;1.25;0.90;;;;;;;7.69;58.32;98368.00;2501251;28;20031;-82
2024/03/29 02:11:57;;;;;;;1.40;1.30;;;;;;;7.69;57.82;98374.94;2525902;28;20040;-82
2024/03/29 02:13:10;;;;;;;3.03;1.60;;;;;;;7.67;57.80;98382.81;2504200;28;20095;-82
2024/03/29 02:14:23;;;;;;;3.95;1.77;;;;;;;7.64;58.62;98382.88;2497646;28;20062;-82
2024/03/29 02:15:36;;;;;;;1.95;1.15;;;;;;;7.61;57.84;98378.63;2490300;28;20035;-82
2024/03/29 02:16:50;;;;;;;1.08;0.98;;;;;;;7.64;58.09;98375.97;2494260;28;20034;-82
2024/03/29 02:18:03;;;;;;;1.33;1.10;;;;;;;7.64;58.23;98370.78;2521891;28;20022;-82
2024/03/29 02:19:16;;;;;;;2.25;1.50;;;;;;;7.63;58.54;98376.00;2484833;28;20036;-82
2024/03/29 02:20:31;;;;;;;2.40;1.52;;;;;;;7.61;59.24;98375.19;2483446;28;20023;-83
2024/03/29 02:21:48;;;;;;;1.70;1.20;;;;;;;7.58;60.12;98378.75;2517623;28;20020;-83
2024/03/29 02:23:10;;;;;;;2.60;1.50;;;;;;;7.54;60.83;98376.31;2542390;28;20025;-82
2024/03/29 02:24:23;;;;;;;4.07;1.20;;;;;;;7.47;60.77;98370.47;2523247;28;20021;-82
2024/03/29 02:25:37;;;;;;;3.05;1.00;;;;;;;7.42;60.88;98373.22;2505869;28;20120;-83
2024/03/29 02:26:51;;;;;;;1.88;1.20;;;;;;;7.39;60.99;98370.72;2501081;28;20023;-83
2024/03/29 02:28:05;;;;;;;1.88;1.65;;;;;;;7.36;61.26;98362.19;2491433;28;20059;-82
2024/03/29 02:29:18;;;;;;;2.35;1.40;;;;;;;7.35;61.01;98374.28;2499855;28;20053;-82
2024/03/29 02:30:32;;;;;;;4.65;1.15;;;;;;;7.34;61.38;98375.19;2501012;28;20034;-82
2024/03/29 02:31:45;;;;;;;6.82;2.10;;;;;;;7.31;61.72;98371.88;2497334;28;20494;-81
2024/03/29 02:32:59;;;;;;;2.53;1.48;;;;;;;7.29;62.15;98378.84;2517408;28;20404;-83
2024/03/29 02:34:12;;;;;;;1.73;1.25;;;;;;;7.26;62.13;98384.97;2518828;28;20127;-81
2024/03/29 02:35:26;;;;;;;3.42;1.55;;;;;;;7.26;62.30;98384.97;2529527;28;20054;-80
2024/03/29 02:36:39;;;;;;;1.58;0.80;;;;;;;7.26;62.07;98379.78;2497165;28;20064;-81
2024/03/29 02:37:53;;;;;;;1.50;1.25;;;;;;;7.29;61.79;98381.44;2501898;28;20029;-81
2024/03/29 02:39:06;;;;;;;4.57;1.60;;;;;;;7.29;62.34;98378.84;2534617;28;20434;-79
2024/03/29 02:40:20;;;;;;;10.85;2.65;;;;;;;7.27;62.49;98378.88;2502127;28;20411;-80
2024/03/29 02:41:33;;;;;;;2.67;1.30;;;;;;;7.27;62.50;98373.69;2529641;28;20024;-81
2024/03/29 02:42:49;;;;;;;1.23;1.00;;;;;;;7.27;62.24;98373.69;2496891;28;20015;-81
2024/03/29 02:44:02;;;;;;;2.38;1.27;;;;;;;7.30;62.11;98373.59;2486724;28;20099;-80
2024/03/29 02:45:16;;;;;;;1.30;0.93;;;;;;;7.32;62.04;98389.97;2534531;28;20088;-81
2024/03/29 02:46:29;;;;;;;1.38;1.20;;;;;;;7.34;62.02;98387.34;2500734;28;20697;-79
2024/03/29 02:47:43;;;;;;;3.30;2.17;;;;;;;7.33;62.48;98394.28;2502384;28;20534;-81
2024/03/29 02:48:56;;;;;;;2.95;1.75;;;;;;;7.32;62.77;98392.56;2501649;28;20084;-80
2024/03/29 02:50:13;;;;;;;2.78;1.60;;;;;;;7.33;63.13;98396.88;2501806;28;20117;-81
2024/03/29 02:51:27;;;;;;;5.40;3.17;;;;;;;7.33;62.84;98396.00;2484455;28;20042;-80
2024/03/29 02:52:40;;;;;;;6.15;2.22;;;;;;;7.34;62.63;98395.13;2492206;29;20023;-80
2024/03/29 02:53:53;;;;;;;3.78;2.22;;;;;;;7.35;62.73;98396.81;2508328;28;20548;-81
2024/03/29 02:55:06;;;;;;;5.07;2.83;;;;;;;7.34;62.66;98406.34;2549346;28;20025;-80
2024/03/29 02:56:23;;;;;;;3.92;2.80;;;;;;;7.37;62.66;98402.81;2491637;28;20482;-81
2024/03/29 02:57:37;;;;;;;6.47;2.42;;;;;;;7.37;62.60;98403.66;2488122;28;20037;-80
2024/03/29 02:58:51;;;;;;;3.47;2.83;;;;;;;7.37;62.70;98405.41;2528054;28;20558;-81
2024/03/29 03:00:05;;;;;;;8.43;2.45;;;;;;;7.39;63.02;98417.44;2539010;28;20075;-80
2024/03/29 03:01:19;;;;;;;8.05;2.70;;;;;;;7.40;62.99;98432.09;2532282;28;20040;-81
2024/03/29 03:02:32;;;;;;;3.95;2.83;;;;;;;7.42;63.25;98421.66;2490354;28;20547;-81
2024/03/29 03:03:45;;;;;;;4.57;2.55;;;;;;;7.41;63.47;98412.19;2481999;28;20027;-80
2024/03/29 03:05:01;;;;;;;5.05;3.03;;;;;;;7.47;62.79;98437.09;2496614;28;20031;-81
2024/03/29 03:06:15;;;;;;;1.63;1.23;;;;;;;7.60;61.54;98433.22;2501016;28;20093;-81
2024/03/29 03:12:03;;;;;;;3.28;1.67;;;;;;;8.15;59.53;98418.38;2550031;28;20128;-81
2024/03/29 03:13:17;;;;;;;3.35;1.95;;;;;;;8.12;60.33;98415.91;2534375;28;20060;-81
2024/03/29 03:14:30;;;;;;;3.70;1.50;;;;;;;8.07;60.95;98417.81;2492154;28;20019;-82
2024/03/29 03:15:43;;;;;;;4.32;1.77;;;;;;;8.03;61.76;98424.03;2501376;28;20038;-82
2024/03/29 03:16:57;;;;;;;1.73;1.10;;;;;;;7.98;62.21;98412.94;2494564;28;20024;-82
2024/03/29 03:18:10;;;;;;;2.53;1.08;;;;;;;7.94;63.10;98411.34;2479281;28;20036;-82
2024/03/29 03:19:23;;;;;;;6.05;2.42;;;;;;;7.88;63.61;98408.94;2484874;28;20047;-82
2024/03/29 03:20:37;;;;;;;4.88;1.38;;;;;;;7.84;64.22;98410.78;2500482;28;20018;-82
2024/03/29 03:21:51;;;;;;;5.10;2.42;;;;;;;7.79;64.45;98408.34;2487593;28;20023;-81
2024/03/29 03:23:04;;;;;;;2.35;1.70;;;;;;;7.76;64.88;98420.59;2497712;28;20026;-80
2024/03/29 03:24:17;;;;;;;3.53;1.50;;;;;;;7.73;65.28;98418.09;2497910;28;20042;-80
2024/03/29 03:25:31;;;;;;;1.10;1.00;;;;;;;7.69;65.81;98413.88;2514201;28;20128;-81
2024/03/29 03:26:44;;;;;;;2.42;1.95;;;;;;;7.67;66.14;98416.56;2509334;28;20066;-81
2024/03/29 03:27:57;;;;;;;2.28;1.73;;;;;;;7.64;66.48;98419.22;2501720;28;20047;-81
2024/03/29 03:29:10;;;;;;;2.17;1.50;;;;;;;7.62;66.87;98410.66;2509259;28;20050;-81
2024/03/29 03:30:24;;;;;;;2.72;1.20;;;;;;;7.61;67.33;98420.16;2498552;28;20026;-82
2024/03/29 03:31:37;;;;;;;1.80;1.23;;;;;;;7.61;67.57;98416.72;2510084;28;20033;-80
2024/03/29 03:32:50;;;;;;;2.10;1.58;;;;;;;7.60;68.02;98407.25;2504744;28;20035;-82
2024/03/29 03:34:03;;;;;;;1.90;1.45;;;;;;;7.60;68.08;98404.66;2533521;28;20029;-81
2024/03/29 03:35:16;;;;;;;1.25;1.10;;;;;;;7.59;68.39;98406.41;2511535;28;20034;-81
2024/03/29 03:36:30;;;;;;;1.30;1.20;;;;;;;7.58;68.51;98389.13;2492113;29;20077;-82
2024/03/29 03:37:43;;;;;;;2.67;1.50;;;;;;;7.56;68.36;98382.28;2488123;28;20028;-81
2024/03/29 03:38:56;;;;;;;1.55;1.20;;;;;;;7.54;68.54;98373.72;2491484;28;20014;-82
2024/03/29 03:40:10;;;;;;;4.10;2.38;;;;;;;7.53;68.76;98374.59;2481548;28;20432;-82
2024/03/29 03:41:23;;;;;;;5.07;2.15;;;;;;;7.48;68.81;98371.31;2495827;28;20570;-82
2024/03/29 03:42:36;;;;;;;3.33;2.80;;;;;;;7.42;69.15;98368.00;2540883;28;20357;-82
2024/03/29 03:43:49;;;;;;;2.28;1.95;;;;;;;7.41;69.60;98376.72;2511388;28;20569;-81
2024/03/29 03:45:03;;;;;;;2.95;1.92;;;;;;;7.40;69.97;98368.97;2528591;28;20056;-81
2024/03/29 03:46:16;;;;;;;4.25;2.03;;;;;;;7.40;69.95;98379.34;2514332;28;20026;-78
2024/03/29 03:47:30;;;;;;;2.05;1.85;;;;;;;7.41;70.32;98389.69;2536757;28;20053;-82
2024/03/29 03:48:43;;;;;;;2.33;1.83;;;;;;;7.41;70.35;98375.88;2495187;29;20034;-81
2024/03/29 03:49:56;;;;;;;2.90;2.00;;;;;;;7.41;70.76;98373.28;2500913;28;20019;-82
2024/03/29 03:51:09;;;;;;;3.28;1.98;;;;;;;7.40;70.44;98368.97;2532389;28;20033;-81
2024/03/29 03:52:23;;;;;;;7.15;2.95;;;;;;;7.40;70.44;98371.56;2495216;28;20030;-81
2024/03/29 03:53:36;;;;;;;1.75;1.45;;;;;;;7.39;70.45;98382.84;2502046;28;20039;-81
2024/03/29 03:54:49;;;;;;;2.95;1.83;;;;;;;7.39;70.49;98373.31;2505137;28;20019;-81
2024/03/29 03:56:03;;;;;;;1.45;1.30;;;;;;;7.40;70.36;98385.38;2491647;28;20066;-82
2024/03/29 03:57:16;;;;;;;3.97;1.95;;;;;;;7.41;70.27;98384.50;2497932;28;20023;-81
2024/03/29 03:58:29;;;;;;;4.47;1.50;;;;;;;7.43;69.87;98374.91;2529355;28;20063;-81
2024/03/29 03:59:43;;;;;;;3.13;1.95;;;;;;;7.47;69.91;98380.00;2486025;28;20093;-81
2024/03/29 04:00:56;;;;;;;1.77;1.52;;;;;;;7.47;69.92;98369.63;2491348;28;20019;-81
2024/03/29 04:02:10;;;;;;;2.67;2.47;;;;;;;7.46;70.23;98367.91;2493117;28;20039;-82
2024/03/29 04:03:23;;;;;;;11.55;9.88;;;;;;;7.44;70.08;98373.16;2498504;28;20050;-81
2024/03/29 04:04:36;;;;;;;27.80;21.52;;;;;;;7.43;70.37;98361.94;2492153;28;20027;-80
2024/03/29 04:05:49;;;;;;;13.77;11.75;;;;;;;7.46;70.28;98352.34;2501596;28;20027;-80
2024/03/29 04:07:03;;;;;;;5.95;3.47;;;;;;;7.48;70.41;98345.34;2519819;28;20434;-81
2024/03/29 04:08:18;;;;;;;2.47;2.25;;;;;;;7.49;70.56;98350.50;2495449;28;20476;-81
2024/03/29 04:09:31;;;;;;;3.40;2.28;;;;;;;7.49;70.49;98350.50;2494333;28;20065;-81
2024/03/29 04:10:44;;;;;;;2.08;1.88;;;;;;;7.48;70.33;98348.78;2502208;28;20049;-82
2024/03/29 04:11:58;;;;;;;1.90;1.55;;;;;;;7.53;70.23;98353.84;2522849;28;20041;-82
2024/03/29 04:13:11;;;;;;;6.28;2.40;;;;;;;7.62;69.15;98358.75;2531881;28;20021;-80
2024/03/29 04:14:24;;;;;;;2.50;2.13;;;;;;;7.67;68.80;98367.22;2494210;28;20023;-81
2024/03/29 04:15:37;;;;;;;74.70;66.70;;;;;;;7.67;68.66;98369.81;2514894;28;20031;-80
2024/03/29 04:16:50;;;;;;;58.72;52.80;;;;;;;7.70;68.31;98389.63;2526486;28;20022;-81
2024/03/29 04:18:04;;;;;;;73.88;65.82;;;;;;;7.70;68.52;98392.25;2498273;29;20062;-81
2024/03/29 04:19:17;;;;;;;115.30;102.53;;;;;;;7.70;68.37;98400.88;2491979;29;20027;-81
2024/03/29 04:20:30;;;;;;;86.70;77.05;;;;;;;7.72;68.77;98403.41;2495490;28;20038;-81
2024/03/29 04:21:44;;;;;;;27.20;24.45;;;;;;;7.73;68.66;98402.50;2494287;28;20024;-81
2024/03/29 04:22:57;;;;;;;16.52;14.75;;;;;;;7.75;68.65;98406.75;2491641;28;20033;-80
2024/03/29 04:24:10;;;;;;;33.75;30.20;;;;;;;7.76;68.83;98405.00;2506354;28;20108;-81
2024/03/29 04:25:23;;;;;;;23.15;19.92;;;;;;;7.78;69.09;98400.63;2499654;28;20467;-80
2024/03/29 04:26:38;;;;;;;12.13;9.98;;;;;;;7.77;69.06;98394.59;2499683;28;20038;-80
2024/03/29 04:27:51;;;;;;;10.35;9.35;;;;;;;7.78;69.13;98390.22;2489005;28;20035;-80
2024/03/29 04:29:05;;;;;;;20.75;18.10;;;;;;;7.79;69.46;98389.31;2500670;28;20042;-81
2024/03/29 04:30:18;;;;;;;17.08;12.57;;;;;;;7.77;69.58;98375.53;2506736;28;20037;-80
2024/03/29 04:31:31;;;;;;;26.05;23.55;;;;;;;7.77;69.98;98370.34;2497608;28;20515;-81
2024/03/29 04:32:44;;;;;;;17.50;14.40;;;;;;;7.76;69.90;98361.72;2499847;28;20513;-81
2024/03/29 04:33:57;;;;;;;10.25;9.25;;;;;;;7.75;70.14;98360.03;2506406;28;20561;-81
2024/03/29 04:35:11;;;;;;;6.60;6.00;;;;;;;7.75;70.33;98354.00;2505334;28;20491;-81
2024/03/29 04:36:24;;;;;;;7.82;6.97;;;;;;;7.74;70.62;98358.31;2540017;28;20037;-81
2024/03/29 04:37:37;;;;;;;23.73;21.48;;;;;;;7.73;70.66;98359.22;2497245;28;20052;-82
2024/03/29 04:38:50;;;;;;;21.63;18.55;;;;;;;7.73;70.59;98361.81;2485583;29;20039;-82
2024/03/29 04:40:04;;;;;;;22.65;20.33;;;;;;;7.74;70.54;98357.47;2489180;28;20059;-82
2024/03/29 04:41:18;;;;;;;8.88;7.97;;;;;;;7.73;70.33;98351.44;2536054;28;20495;-81
2024/03/29 04:42:31;;;;;;;7.75;7.03;;;;;;;7.75;70.23;98354.81;2529347;28;20441;-81
2024/03/29 04:43:44;;;;;;;6.35;4.13;;;;;;;7.76;70.40;98353.91;2518548;28;20489;-82
2024/03/29 04:44:57;;;;;;;7.15;5.15;;;;;;;7.76;70.30;98351.31;2521959;28;20047;-82
2024/03/29 04:46:12;;;;;;;6.45;5.60;;;;;;;7.77;70.44;98352.16;2492632;28;20023;-83
2024/03/29 04:47:26;;;;;;;17.98;16.13;;;;;;;7.78;70.27;98353.88;2495981;28;20031;-81
2024/03/29 04:48:41;;;;;;;33.60;29.88;;;;;;;7.80;70.53;98362.47;2536004;28;20096;-81
2024/03/29 04:49:54;;;;;;;14.25;12.60;;;;;;;7.80;70.48;98354.69;2519880;28;20144;-81
2024/03/29 04:51:11;;;;;;;15.00;13.48;;;;;;;7.80;70.33;98362.47;2494918;28;20027;-82
2024/03/29 04:52:26;;;;;;;9.50;8.63;;;;;;;7.80;70.32;98347.72;2496131;28;20027;-82
2024/03/29 04:53:39;;;;;;;10.07;7.90;;;;;;;7.81;70.32;98343.38;2491782;28;20027;-82
2024/03/29 04:54:52;;;;;;;8.45;7.03;;;;;;;7.81;70.52;98339.03;2512731;28;20017;-82
2024/03/29 04:56:06;;;;;;;7.80;6.95;;;;;;;7.82;70.41;98332.94;2517597;28;20104;-81
2024/03/29 04:57:19;;;;;;;4.82;2.72;;;;;;;7.83;70.57;98329.44;2528537;28;20025;-82
2024/03/29 04:58:33;;;;;;;4.18;2.60;;;;;;;7.83;70.43;98334.63;2498743;28;20058;-81
2024/03/29 04:59:46;;;;;;;5.07;2.38;;;;;;;7.82;70.44;98332.94;2525554;28;20056;-83
2024/03/29 05:00:59;;;;;;;3.92;1.85;;;;;;;7.80;70.44;98337.34;2531118;28;20021;-82
2024/03/29 05:03:25;;;;;;;3.28;2.85;;;;;;;7.79;70.50;98351.22;2543687;22;20751;-80
2024/03/29 05:04:39;;;;;;;41.35;37.17;;;;;;;7.76;70.67;98345.28;2497378;28;20282;-80
2024/03/29 05:05:52;;;;;;;32.17;29.30;;;;;;;7.75;71.02;98349.63;2503028;28;20054;-80
2024/03/29 05:07:06;;;;;;;24.20;22.23;;;;;;;7.73;70.93;98361.81;2479929;28;20031;-80
2024/03/29 05:08:21;;;;;;;24.45;22.35;;;;;;;7.74;71.46;98360.91;2531353;28;20437;-80
2024/03/29 05:09:35;;;;;;;22.67;21.00;;;;;;;7.74;71.23;98357.47;2520466;28;20032;-80
2024/03/29 05:10:52;;;;;;;7.00;6.47;;;;;;;7.74;71.40;98345.31;2511026;28;20017;-81
2024/03/29 05:12:05;;;;;;;6.50;5.90;;;;;;;7.74;71.32;98344.47;2508610;28;20039;-81
2024/03/29 05:13:19;;;;;;;6.85;6.25;;;;;;;7.76;71.32;98353.06;2528865;28;20021;-81
2024/03/29 05:14:33;;;;;;;5.38;4.72;;;;;;;7.76;71.33;98356.50;2506051;28;20439;-81
2024/03/29 05:15:47;;;;;;;4.70;3.25;;;;;;;7.77;71.61;98371.22;2523140;28;20023;-81
2024/03/29 05:17:00;;;;;;;8.25;5.10;;;;;;;7.77;71.76;98376.41;2529404;28;20024;-81
2024/03/29 05:18:13;;;;;;;7.43;6.82;;;;;;;7.77;71.44;98376.41;2487993;28;20046;-81
2024/03/29 05:19:27;;;;;;;6.07;5.47;;;;;;;7.78;71.73;98369.47;2528657;28;20057;-81
2024/03/29 05:20:41;;;;;;;5.82;4.03;;;;;;;7.78;71.85;98374.66;2500228;28;20459;-81
2024/03/29 05:21:54;;;;;;;3.80;3.38;;;;;;;7.78;71.65;98365.09;2487801;28;20058;-81
2024/03/29 05:23:07;;;;;;;5.10;3.55;;;;;;;7.80;71.88;98372.84;2522994;28;20025;-81
2024/03/29 05:24:21;;;;;;;3.20;2.60;;;;;;;7.79;71.73;98369.38;2541214;28;20052;-81
2024/03/29 05:25:34;;;;;;;3.25;2.10;;;;;;;7.80;71.84;98371.09;2496533;28;20035;-81
2024/03/29 05:26:48;;;;;;;4.78;2.15;;;;;;;7.81;71.74;98365.00;2511870;28;20024;-82
2024/03/29 05:28:01;;;;;;;3.30;1.92;;;;;;;7.82;71.62;98373.63;2530633;28;20417;-81
2024/03/29 05:29:15;;;;;;;3.88;2.63;;;;;;;7.81;71.87;98374.53;2502151;28;20431;-81
2024/03/29 05:30:28;;;;;;;5.05;4.55;;;;;;;7.80;71.70;98373.69;2493157;28;20020;-81
2024/03/29 05:31:42;;;;;;;4.95;3.17;;;;;;;7.81;71.90;98374.53;2493353;28;20089;-81
2024/03/29 05:32:56;;;;;;;3.97;2.42;;;;;;;7.81;71.75;98384.94;2521143;28;20429;-81
2024/03/29 05:34:09;;;;;;;2.95;2.45;;;;;;;7.81;71.66;98375.38;2527319;28;20056;-81
2024/03/29 05:35:22;;;;;;;6.32;2.92;;;;;;;7.80;71.55;98367.66;2537584;28;20036;-81
2024/03/29 05:36:36;;;;;;;3.78;2.53;;;;;;;7.81;71.50;98377.97;2520749;28;20036;-81
2024/03/29 05:37:53;;;;;;;3.35;2.53;;;;;;;7.80;71.67;98389.28;2481163;28;20011;-80
2024/03/29 05:39:06;;;;;;;3.35;3.05;;;;;;;7.82;71.56;98397.00;2521560;28;20029;-81
2024/03/29 05:40:25;;;;;;;4.05;3.28;;;;;;;7.80;71.52;98407.44;2499556;28;20391;-81
2024/03/29 05:41:38;;;;;;;7.32;2.83;;;;;;;7.78;71.81;98393.66;2500051;28;20019;-81
2024/03/29 05:42:52;;;;;;;3.72;2.63;;;;;;;7.77;71.52;98394.59;2511454;28;20029;-81
2024/03/29 05:44:05;;;;;;;4.55;2.50;;;;;;;7.77;71.79;98398.91;2509474;28;20047;-80
2024/03/29 05:45:28;;;;;;;5.63;3.28;;;;;;;7.78;71.76;98400.63;2478628;28;20023;-80
2024/03/29 05:46:41;;;;;;;;;;;;;;;7.77;71.66;98389.38;2483189;28;20023;-80
2024/03/29 05:47:56;;;;;;;2.17;1.98;;;;;;;7.75;71.71;98396.38;2512578;28;20312;-80
2024/03/29 05:49:10;;;;;;;2.88;2.67;;;;;;;7.75;71.67;98401.56;2537166;28;20021;-80
2024/03/29 05:50:24;;;;;;;4.65;3.05;;;;;;;7.77;71.75;98415.34;2540535;28;20716;-81
2024/03/29 05:51:37;;;;;;;5.38;3.05;;;;;;;7.77;71.71;98412.75;2503713;28;20152;-80
2024/03/29 05:52:52;;;;;;;6.40;3.17;;;;;;;7.78;71.71;98416.19;2537206;28;20021;-81
2024/03/29 05:54:05;;;;;;;2.95;2.72;;;;;;;7.80;71.40;98411.81;2517256;28;20030;-81
2024/03/29 05:55:18;;;;;;;3.05;2.45;;;;;;;7.80;71.28;98425.63;2495296;28;20055;-81